Wisconsin Rapids, WI

6:50 PM CDT on July 30, 2016 (GMT -0500)
Alexander Field South Wood County | | Change Station

Elev 1020 ft 44.36 °N, 89.84 °W | Updated 56 minutes ago

Scattered Clouds
Scattered Clouds
79 °F
Feels Like 79 °F
N
13
Wind Variable Wind from ESE

Today
High -- | Low -- °F
--% Chance of Precip.
Yesterday
High -- | Low -- °F
Precip. -- in
Pressure 30.03 in
Visibility 10.0 miles
Clouds Scattered Clouds 4700 ft
Scattered Clouds 5500 ft
Dew Point 57 °F
Humidity 47%
Rainfall 0.00 in
Snow Depth Not available.
5:44 AM 8:25 PM
Waning Crescent, 10% visible
METAR KISW 302254Z AUTO 11011KT 10SM SCT047 SCT055 26/14 A3004 RMK AO2 SLP168 T02610139
Pressure 30.03 in
Visibility 10.0 miles
Clouds Scattered Clouds 4700 ft
Scattered Clouds 5500 ft
Dew Point 57 °F
Humidity 47%
Rainfall 0.00 in
Snow Depth Not available.
5:44 AM 8:25 PM
Waning Crescent, 10% visible
METAR KISW 302254Z AUTO 11011KT 10SM SCT047 SCT055 26/14 A3004 RMK AO2 SLP168 T02610139

10-Day Weather Forecast

Almanac

Astronomy

Jul. 30, 2016 Rise Set
Actual Time
Civil Twilight
Nautical Twilight
Astronomical Twilight
Moon
Length of Visible Light
Length of Day
Tomorrow will be .
, % of the Moon is Illuminated

Today's Extremes

State Highs State Lows

Community

WunderPhotos

Upload Photos

1,928,680 photos uploaded!

WunderBlog® & News

Nearby

Air Quality

  Air Quality AQ Index Pollutant
Not available.

Snow Depth

Station Depth Elevation

Earthquake Activity

City Distance Mag. Time & Date
Minimum magnitude displayed is 2.5.

Coastal Water Temperatures

Place Temperature

Stations

Nearby Weather Stations

Station Location Temp. Windchill Dew Point Humidity Wind Precip. Elev Updated Type
                   

Watches & Warnings

There are currently no watches in effect.